createdAt,value
2023-07-23T00:05:00.308Z,26.40
2023-07-23T00:11:02.715Z,26.40
2023-07-23T00:17:05.229Z,26.30
2023-07-23T00:23:07.665Z,26.20
2023-07-23T00:29:10.126Z,26.10
2023-07-23T00:35:12.450Z,26.00
2023-07-23T00:41:14.918Z,25.90
2023-07-23T00:47:18.381Z,25.70
2023-07-23T00:53:21.474Z,25.60
2023-07-23T00:59:24.021Z,25.50
2023-07-23T01:05:27.328Z,25.40
2023-07-23T01:11:29.966Z,25.40
2023-07-23T01:17:33.253Z,25.40
2023-07-23T01:23:35.842Z,25.40
2023-07-23T01:29:39.602Z,25.40
2023-07-23T01:35:42.161Z,25.50
2023-07-23T01:41:44.542Z,25.60
2023-07-23T01:47:46.873Z,25.70
2023-07-23T01:53:49.272Z,25.80
2023-07-23T01:59:51.866Z,25.90
2023-07-23T02:05:59.091Z,25.70
2023-07-23T02:12:01.604Z,24.90
2023-07-23T02:18:04.149Z,24.10
2023-07-23T02:24:07.255Z,23.00
2023-07-23T02:30:10.223Z,22.70
2023-07-23T02:36:12.526Z,22.70
2023-07-23T02:42:15.295Z,22.70
2023-07-23T02:48:17.755Z,22.70
2023-07-23T02:54:20.290Z,22.70
2023-07-23T03:00:22.511Z,22.70
2023-07-23T03:06:25.176Z,22.70
2023-07-23T03:12:27.737Z,22.60
2023-07-23T03:18:30.699Z,22.70
2023-07-23T03:24:33.257Z,22.70
2023-07-23T03:30:35.679Z,22.80
2023-07-23T03:36:38.130Z,23.10
2023-07-23T03:42:40.532Z,23.20
2023-07-23T03:48:42.844Z,23.20
2023-07-23T03:54:45.165Z,23.30
2023-07-23T04:00:47.719Z,23.40
2023-07-23T04:06:50.153Z,23.30
2023-07-23T04:12:52.595Z,23.20
2023-07-23T04:18:55.262Z,23.20
2023-07-23T04:24:57.764Z,23.20
2023-07-23T04:31:00.261Z,23.20
2023-07-23T04:37:02.736Z,23.40
2023-07-23T04:43:05.134Z,23.20
2023-07-23T04:49:07.558Z,23.20
2023-07-23T04:55:10.205Z,23.40
2023-07-23T05:01:13.890Z,23.50
2023-07-23T05:07:16.216Z,23.60
2023-07-23T05:13:18.663Z,23.80
2023-07-23T05:19:21.340Z,24.10
2023-07-23T05:25:24.209Z,24.50
2023-07-23T05:31:27.120Z,24.80
2023-07-23T05:37:29.895Z,25.20
2023-07-23T05:43:32.313Z,25.70
2023-07-23T05:49:34.654Z,27.30
2023-07-23T05:55:37.181Z,31.50
2023-07-23T06:01:40.001Z,33.20
2023-07-23T06:07:42.276Z,33.40
2023-07-23T06:13:44.986Z,35.00
2023-07-23T06:19:47.596Z,31.20
2023-07-23T06:25:58.337Z,29.70
2023-07-23T06:32:00.610Z,29.30
2023-07-23T06:38:03.125Z,28.90
2023-07-23T06:44:05.589Z,28.40
2023-07-23T06:50:08.214Z,28.60
2023-07-23T06:56:10.789Z,27.90
2023-07-23T07:02:13.358Z,28.10
2023-07-23T07:08:15.980Z,28.00
2023-07-23T07:14:18.285Z,27.40
2023-07-23T07:20:20.992Z,27.50
2023-07-23T07:26:23.487Z,27.70
2023-07-23T07:32:25.869Z,29.20
2023-07-23T07:38:29.151Z,31.40
2023-07-23T07:44:33.571Z,33.00
2023-07-23T07:50:36.177Z,33.50
2023-07-23T07:56:38.828Z,33.70
2023-07-23T08:02:41.709Z,32.10
2023-07-23T08:08:45.040Z,31.20
2023-07-23T08:14:48.109Z,32.00
2023-07-23T08:20:51.040Z,32.10
2023-07-23T08:26:59.217Z,31.20
2023-07-23T08:33:03.115Z,29.80
2023-07-23T08:39:06.557Z,29.90
2023-07-23T08:45:33.899Z,29.50
2023-07-23T08:51:47.770Z,28.80
2023-07-23T08:57:50.487Z,28.70
2023-07-23T09:03:53.091Z,28.40
2023-07-23T09:09:56.561Z,29.00
2023-07-23T09:16:01.085Z,28.70
2023-07-23T09:22:06.728Z,28.80
2023-07-23T09:28:09.121Z,28.50
2023-07-23T09:34:11.967Z,27.90
2023-07-23T09:40:14.358Z,27.20
2023-07-23T09:46:16.719Z,26.80
2023-07-23T09:52:19.022Z,26.80
2023-07-23T09:58:22.870Z,26.40
2023-07-23T10:04:27.081Z,26.90
2023-07-23T10:10:29.556Z,27.10
2023-07-23T10:16:39.498Z,28.40
2023-07-23T10:22:45.064Z,29.50
2023-07-23T10:28:47.894Z,29.10
2023-07-23T10:34:50.543Z,29.50
2023-07-23T10:40:52.914Z,29.60
2023-07-23T10:46:57.498Z,30.00
2023-07-23T10:53:06.836Z,29.70
2023-07-23T10:59:10.589Z,29.50
2023-07-23T11:05:12.964Z,30.20
2023-07-23T11:11:15.638Z,29.50
2023-07-23T11:17:17.879Z,29.70
2023-07-23T11:23:27.488Z,30.80
2023-07-23T11:29:34.110Z,31.50
2023-07-23T11:35:37.613Z,31.70
2023-07-23T11:41:42.868Z,31.80
2023-07-23T11:47:55.130Z,30.20
2023-07-23T11:54:02.717Z,29.00
2023-07-23T12:00:05.792Z,29.20
2023-07-23T12:06:16.478Z,29.50
2023-07-23T12:12:23.037Z,29.40
2023-07-23T12:18:44.397Z,29.20
2023-07-23T12:24:50.669Z,29.10
2023-07-23T12:30:53.190Z,29.30
2023-07-23T12:36:55.508Z,29.70
2023-07-23T12:42:57.805Z,33.00
2023-07-23T12:49:00.304Z,35.50
2023-07-23T12:55:04.426Z,35.70
2023-07-23T13:01:06.962Z,34.10
2023-07-23T13:07:09.271Z,33.50
2023-07-23T13:13:11.661Z,32.40
2023-07-23T13:19:14.181Z,31.40
2023-07-23T13:25:16.700Z,30.90
2023-07-23T13:31:21.212Z,30.40
2023-07-23T13:37:23.565Z,30.40
2023-07-23T13:43:25.943Z,30.30
2023-07-23T13:49:28.516Z,30.20
2023-07-23T13:55:30.881Z,30.20
2023-07-23T14:01:33.466Z,29.80
2023-07-23T14:07:35.867Z,29.60
2023-07-23T14:13:38.257Z,29.50
2023-07-23T14:19:40.829Z,29.10
2023-07-23T14:25:43.363Z,29.40
2023-07-23T14:31:45.759Z,29.30
2023-07-23T14:37:48.476Z,29.20
2023-07-23T14:43:50.815Z,29.00
2023-07-23T14:49:53.222Z,29.00
2023-07-23T14:55:55.537Z,29.00
2023-07-23T15:01:58.089Z,29.20
2023-07-23T15:08:00.401Z,28.90
2023-07-23T15:14:03.158Z,28.80
2023-07-23T15:20:06.219Z,28.70
2023-07-23T15:26:13.972Z,28.60
2023-07-23T15:32:16.806Z,28.60
2023-07-23T15:38:19.150Z,28.60
2023-07-23T15:44:21.499Z,28.70
2023-07-23T15:50:23.869Z,28.50
2023-07-23T15:56:27.215Z,28.50
2023-07-23T16:02:29.616Z,28.40
2023-07-23T16:08:31.961Z,28.30
2023-07-23T16:14:34.389Z,28.20
2023-07-23T16:20:36.883Z,28.10
2023-07-23T16:26:39.237Z,28.10
2023-07-23T16:32:41.957Z,28.10
2023-07-23T16:38:46.588Z,28.10
2023-07-23T16:44:49.144Z,28.00
2023-07-23T16:50:51.793Z,27.80
2023-07-23T16:56:54.300Z,27.60
2023-07-23T17:02:56.735Z,27.60
2023-07-23T17:08:59.388Z,27.50
2023-07-23T17:15:01.901Z,27.50
2023-07-23T17:21:04.307Z,27.40
2023-07-23T17:27:07.363Z,27.30
2023-07-23T17:33:09.772Z,27.20
2023-07-23T17:39:15.135Z,27.20
2023-07-23T17:45:17.569Z,26.90
2023-07-23T17:51:20.118Z,26.90
2023-07-23T17:57:22.455Z,26.80
2023-07-23T18:03:24.870Z,26.60
2023-07-23T18:09:27.222Z,26.50
2023-07-23T18:15:29.587Z,26.50
2023-07-23T18:21:32.112Z,26.30
2023-07-23T18:27:37.821Z,26.40
2023-07-23T18:33:40.206Z,26.40
2023-07-23T18:39:42.786Z,26.30
2023-07-23T18:45:45.308Z,26.30
2023-07-23T18:51:47.723Z,26.10
2023-07-23T18:57:49.946Z,26.00
2023-07-23T19:03:52.579Z,25.90
2023-07-23T19:09:56.083Z,25.80
2023-07-23T19:16:00.470Z,25.70
2023-07-23T19:22:04.280Z,25.50
2023-07-23T19:28:06.790Z,25.40
2023-07-23T19:34:09.417Z,25.40
2023-07-23T19:40:12.354Z,25.50
2023-07-23T19:46:14.992Z,25.40
2023-07-23T19:52:17.416Z,25.40
2023-07-23T19:58:19.827Z,25.40
2023-07-23T20:04:22.640Z,25.30
2023-07-23T20:10:25.129Z,25.10
2023-07-23T20:16:28.003Z,25.10
2023-07-23T20:22:30.735Z,25.00
2023-07-23T20:28:34.522Z,25.00
2023-07-23T20:34:37.264Z,24.80
2023-07-23T20:40:40.084Z,24.90
2023-07-23T20:46:42.750Z,24.70
2023-07-23T20:52:45.301Z,24.60
2023-07-23T20:58:47.688Z,24.50
2023-07-23T21:04:50.235Z,24.50
2023-07-23T21:10:55.496Z,24.40
2023-07-23T21:16:58.081Z,24.30
2023-07-23T21:23:00.516Z,24.10
2023-07-23T21:29:02.933Z,24.00
2023-07-23T21:35:05.832Z,24.00
2023-07-23T21:41:08.089Z,23.90
2023-07-23T21:47:10.548Z,23.80
2023-07-23T21:53:12.848Z,23.80
2023-07-23T21:59:15.404Z,23.80
2023-07-23T22:05:18.003Z,23.70
2023-07-23T22:11:20.442Z,23.70
2023-07-23T22:17:23.121Z,23.60
2023-07-23T22:23:25.637Z,23.50
2023-07-23T22:29:28.493Z,23.40
2023-07-23T22:35:31.516Z,23.50
2023-07-23T22:41:34.031Z,23.40
2023-07-23T22:47:36.354Z,23.30
2023-07-23T22:53:39.458Z,23.20
2023-07-23T22:59:44.840Z,23.20
2023-07-23T23:05:47.328Z,23.10
2023-07-23T23:11:49.668Z,23.10
2023-07-23T23:17:52.022Z,23.10
2023-07-23T23:23:54.523Z,23.10
2023-07-23T23:29:56.904Z,23.00
2023-07-23T23:35:59.861Z,23.00
2023-07-23T23:42:02.359Z,22.90
2023-07-23T23:48:04.993Z,22.90
2023-07-23T23:54:07.684Z,22.90
